• Join FlightAware (Why Join?)
  • Login
  • US Flag 
09:59PM EST


 

Airport Tracker/Info


-or-


 

Live Flight TrackerFlight Track Log ✈ N244DF ✈ 25-Apr-2013 ✈ KSYR - KSCH

Flight Track Log - Related Links

Times and Time Zones

All times are in EDT time to prevent confusion due to time zone crossing. See the N244DF flight status page for this flight to view local times or setup timezone preferences in your user account.

Time Position Orientation Groundspeed Altitude Reporting Facility
EDT Latitude Longitude Course Direction KTS MPH feet Rate Location/Type
04:33PM 43.1758 -76.0875 93° East 167 192 5,300  Level Boston Center
04:34PM 43.1736 -76.0247 93° East 163 188 6,600 1,320 Climbing Boston Center
04:35PM 43.1650 -75.9672 102° East 155 178 8,000 1,140 Climbing Boston Center
04:36PM 43.1561 -75.9128 103° East 152 175 9,000 480 Climbing Boston Center
04:37PM 43.1419 -75.8322 104° East 204 235 9,000  Level Boston Center
04:38PM 43.1294 -75.7603 103° East 199 229 9,000  Level Boston Center
04:40PM 43.1150 -75.6828 104° East 199 229 9,000  Level Boston Center
04:41PM 43.1044 -75.6111 101° East 196 226 9,000  Level Boston Center
04:41PM 43.0939 -75.5422 102° East 193 222 9,000  Level Boston Center
04:42PM 43.0811 -75.4706 104° East 192 221 9,000  Level Boston Center
04:43PM 43.0664 -75.3958 105° East 194 223 9,000  Level Boston Center
04:45PM 43.0519 -75.3186 104° East 194 223 9,000  Level Boston Center
04:46PM 43.0389 -75.2469 104° East 193 222 9,000  Level Boston Center
04:47PM 43.0261 -75.1753 104° East 193 222 9,000  Level Boston Center
04:48PM 43.0133 -75.1008 103° East 194 223 9,000  Level Boston Center
04:49PM 43.0003 -75.0292 104° East 194 223 9,000  Level Boston Center
04:50PM 42.9853 -74.9633 107° East 195 224 9,000  Level Boston Center
04:51PM 42.9719 -74.8975 105° East 188 216 9,000  Level Boston Center
04:52PM 42.9569 -74.8289 107° East 185 213 9,000  Level Boston Center
04:52PM 42.9494 -74.7803 102° East 185 213 9,000  Level Boston Center
04:53PM 42.9342 -74.7144 108° East 184 212 9,000  Level Boston Center
04:54PM 42.9208 -74.6461 105° East 183 211 9,000  Level Boston Center
04:55PM 42.9097 -74.5833 104° East 184 212 9,000  Level Boston Center
04:56PM 42.8961 -74.5203 106° East 184 212 9,000 -360 Level Boston Center
04:57PM 42.8892 -74.4492 98° East 190 219 8,400 -780 Descending Boston Center
04:58PM 42.8861 -74.3783 93° East 192 221 7,500 -900 Descending Boston Center
04:59PM 42.8792 -74.3044 97° East 186 214 6,500 -900 Descending Boston Center
05:00PM 42.8758 -74.2392 94° East 172 198 5,600 -960 Descending Boston Center
05:01PM 42.8728 -74.1794 94° East 168 193 4,700 -1,080 Descending Boston Center
05:02PM 42.8653 -74.1283 101° East 161 185 3,700 -1,200 Descending Boston Center
05:03PM 42.8617 -74.0717 95° East 162 186 2,600 -1,200 Descending Boston Center
05:04PM 42.8586 -74.0064 94° East 157 181 1,400 -660 Descending Boston Center
05:05PM 42.8594 -73.9469 89° East 140 161 1,200 -240 Descending Boston Center
05:06PM 42.8642 -73.8989 82° East 110 127 1,000 -300 Descending Boston Center
05:07PM 42.8472 -73.9211 224° Southwest 107 123 600 -420 Descending Boston Center
05:09PM 42.8500 -73.9167 270° West  Level FlightAware Approximate
05:16PM 42.8526 -73.9290 270° West  Level Estimated
05:17PM 42.8526 -73.9290 270° West  Level Estimated
05:18PM 42.8526 -73.9290 270° West  Level Estimated